Terminal Aerodrome Forecast
Issued by NWS Shreveport, LA

Home | Current Version | Previous Version | Text Only | Print | Product List | Glossary On
Versions: 1 2 3 4 5 6 7 8 9 10 11 12 13 14 15
608
FTUS44 KSHV 291701 AAB
TAFSHV
TAF AMD
KSHV 291701Z 2917/3012 14009KT P6SM SCT025 BKN040
     FM291900 16010KT P6SM VCSH BKN050
     FM300000 16006KT P6SM BKN050 BKN080
      TEMPO 3004/3006 BKN025 OVC040
     FM300600 17008KT P6SM OVC025
     FM300900 18006KT P6SM OVC015=

USA.gov is the U.S. government's official web portal to all federal, state and local government web resources and services.